createdAt,value
2018-03-11T00:02:06.893Z,12.10
2018-03-11T00:04:33.822Z,12.00
2018-03-11T00:07:00.054Z,12.00
2018-03-11T00:09:27.146Z,12.10
2018-03-11T00:11:54.037Z,12.20
2018-03-11T00:14:20.194Z,12.20
2018-03-11T00:16:46.358Z,12.40
2018-03-11T00:19:12.525Z,12.40
2018-03-11T00:21:39.459Z,11.80
2018-03-11T00:24:05.630Z,11.80
2018-03-11T00:26:32.528Z,11.60
2018-03-11T00:28:58.712Z,11.60
2018-03-11T00:31:25.650Z,11.40
2018-03-11T00:33:51.823Z,11.40
2018-03-11T00:36:18.749Z,11.20
2018-03-11T00:38:44.907Z,11.20
2018-03-11T00:41:11.828Z,11.40
2018-03-11T00:43:37.989Z,11.40
2018-03-11T00:46:04.153Z,11.30
2018-03-11T00:48:31.084Z,11.60
2018-03-11T00:50:57.278Z,11.50
2018-03-11T00:53:23.437Z,11.60
2018-03-11T00:55:49.600Z,11.80
2018-03-11T00:58:15.768Z,12.20
2018-03-11T01:00:42.674Z,12.30
2018-03-11T01:03:08.944Z,12.30
2018-03-11T01:05:35.141Z,12.20
2018-03-11T01:08:08.326Z,11.80
2018-03-11T01:10:34.627Z,11.60
2018-03-11T01:13:04.008Z,11.40
2018-03-11T01:15:30.169Z,11.30
2018-03-11T01:17:56.603Z,11.10
2018-03-11T01:20:22.806Z,10.80
2018-03-11T01:22:48.962Z,10.70
2018-03-11T01:25:15.095Z,10.50
2018-03-11T01:27:41.253Z,10.80
2018-03-11T01:30:08.299Z,11.30
2018-03-11T01:32:34.531Z,11.30
2018-03-11T01:35:01.062Z,11.20
2018-03-11T01:37:27.369Z,11.30
2018-03-11T01:39:53.575Z,11.40
2018-03-11T01:42:19.781Z,11.40
2018-03-11T01:44:46.716Z,11.80
2018-03-11T01:47:12.873Z,11.80
2018-03-11T01:49:39.785Z,11.80
2018-03-11T01:52:05.932Z,11.70
2018-03-11T01:54:32.092Z,11.50
2018-03-11T01:56:58.990Z,11.10
2018-03-11T01:59:25.149Z,11.10
2018-03-11T02:01:51.317Z,10.80
2018-03-11T02:04:17.439Z,10.50
2018-03-11T02:06:43.957Z,10.40
2018-03-11T02:09:10.426Z,10.20
2018-03-11T02:11:36.925Z,10.10
2018-03-11T02:14:04.988Z,10.00
2018-03-11T02:16:31.477Z,10.00
2018-03-11T02:18:57.665Z,9.90
2018-03-11T02:21:23.868Z,9.80
2018-03-11T02:23:50.030Z,9.80
2018-03-11T02:26:16.925Z,9.70
2018-03-11T02:28:43.791Z,9.70
2018-03-11T02:31:09.978Z,9.70
2018-03-11T02:33:36.230Z,9.70
2018-03-11T02:36:02.405Z,9.70
2018-03-11T02:38:29.306Z,9.60
2018-03-11T02:40:55.525Z,9.60
2018-03-11T02:43:21.696Z,9.60
2018-03-11T02:45:47.880Z,9.60
2018-03-11T02:48:14.761Z,9.60
2018-03-11T02:50:40.929Z,9.60
2018-03-11T02:53:07.091Z,9.60
2018-03-11T02:55:33.268Z,9.70
2018-03-11T02:57:59.420Z,9.60
2018-03-11T03:00:25.598Z,9.60
2018-03-11T03:02:52.597Z,9.60
2018-03-11T03:05:34.627Z,9.60
2018-03-11T03:08:00.781Z,9.60
2018-03-11T03:10:27.036Z,9.60
2018-03-11T03:12:53.215Z,9.50
2018-03-11T03:15:19.407Z,9.60
2018-03-11T03:17:45.548Z,9.70
2018-03-11T03:20:11.686Z,9.70
2018-03-11T03:22:37.841Z,9.80
2018-03-11T03:25:04.027Z,10.00
2018-03-11T03:27:30.945Z,10.10
2018-03-11T03:29:58.006Z,10.10
2018-03-11T03:32:24.128Z,10.00
2018-03-11T03:34:50.310Z,10.10
2018-03-11T03:37:17.246Z,10.10
2018-03-11T03:39:43.432Z,10.10
2018-03-11T03:42:09.565Z,10.10
2018-03-11T03:44:36.483Z,10.30
2018-03-11T03:47:02.653Z,10.30
2018-03-11T03:49:29.540Z,10.50
2018-03-11T03:51:55.757Z,10.50
2018-03-11T03:54:22.640Z,10.20
2018-03-11T03:56:48.828Z,10.20
2018-03-11T03:59:14.966Z,10.20
2018-03-11T04:01:42.169Z,10.20
2018-03-11T04:04:08.352Z,10.20
2018-03-11T04:06:34.560Z,10.20
2018-03-11T04:09:00.729Z,10.10
2018-03-11T04:11:27.920Z,10.00
2018-03-11T04:13:54.833Z,9.80
2018-03-11T04:16:20.958Z,9.80
2018-03-11T04:18:47.133Z,10.00
2018-03-11T04:21:14.011Z,10.10
2018-03-11T04:23:40.140Z,10.10
2018-03-11T04:26:06.317Z,9.90
2018-03-11T04:28:32.463Z,9.80
2018-03-11T04:30:58.614Z,9.70
2018-03-11T04:33:35.989Z,9.80
2018-03-11T04:36:03.243Z,9.80
2018-03-11T04:38:29.407Z,9.70
2018-03-11T04:40:55.574Z,9.80
2018-03-11T04:43:21.729Z,9.90
2018-03-11T04:45:47.909Z,10.00
2018-03-11T04:48:14.800Z,9.90
2018-03-11T04:50:40.931Z,9.90
2018-03-11T04:53:07.113Z,9.70
2018-03-11T04:55:33.259Z,9.40
2018-03-11T04:57:59.415Z,9.10
2018-03-11T05:00:25.579Z,9.00
2018-03-11T05:02:51.761Z,9.00
2018-03-11T05:05:18.945Z,8.90
2018-03-11T05:07:45.097Z,8.70
2018-03-11T05:10:12.009Z,8.70
2018-03-11T05:12:38.169Z,8.70
2018-03-11T05:15:04.340Z,8.60
2018-03-11T05:17:30.515Z,8.50
2018-03-11T05:19:56.723Z,8.40
2018-03-11T05:22:22.886Z,8.60
2018-03-11T05:24:49.026Z,8.70
2018-03-11T05:27:15.188Z,8.50
2018-03-11T05:29:41.337Z,8.50
2018-03-11T05:32:07.518Z,8.30
2018-03-11T05:34:33.961Z,8.30
2018-03-11T05:37:00.125Z,8.20
2018-03-11T05:39:26.298Z,8.20
2018-03-11T05:41:52.484Z,8.10
2018-03-11T05:44:18.617Z,8.00
2018-03-11T05:46:44.753Z,8.10
2018-03-11T05:49:11.673Z,8.00
2018-03-11T05:51:37.881Z,8.00
2018-03-11T05:54:04.268Z,8.10
2018-03-11T05:56:37.042Z,8.00
2018-03-11T05:59:03.221Z,7.90
2018-03-11T06:01:30.140Z,7.80
2018-03-11T06:03:56.297Z,7.80
2018-03-11T06:06:22.485Z,7.90
2018-03-11T06:08:48.629Z,7.90
2018-03-11T06:11:14.861Z,7.90
2018-03-11T06:13:41.031Z,7.90
2018-03-11T06:16:07.186Z,8.00
2018-03-11T06:18:33.355Z,8.00
2018-03-11T06:21:02.404Z,8.30
2018-03-11T06:23:28.553Z,8.30
2018-03-11T06:25:54.726Z,8.40
2018-03-11T06:28:20.911Z,8.30
2018-03-11T06:30:47.090Z,8.30
2018-03-11T06:33:13.281Z,8.30
2018-03-11T06:35:39.481Z,8.30
2018-03-11T06:38:05.969Z,8.30
2018-03-11T06:40:32.111Z,8.40
2018-03-11T06:42:58.280Z,8.40
2018-03-11T06:45:24.444Z,8.80
2018-03-11T06:47:50.573Z,9.60
2018-03-11T06:50:17.489Z,11.30
2018-03-11T06:52:43.636Z,11.40
2018-03-11T06:55:13.236Z,12.00
2018-03-11T06:57:39.389Z,12.40
2018-03-11T07:00:05.664Z,12.80
2018-03-11T07:02:31.822Z,13.20
2018-03-11T07:04:58.430Z,13.60
2018-03-11T07:07:24.615Z,13.80
2018-03-11T07:09:50.780Z,14.20
2018-03-11T07:12:16.985Z,14.60
2018-03-11T07:14:43.141Z,15.10
2018-03-11T07:17:10.097Z,15.20
2018-03-11T07:19:37.051Z,15.00
2018-03-11T07:22:03.970Z,14.80
2018-03-11T07:24:30.191Z,14.80
2018-03-11T07:26:56.387Z,14.50
2018-03-11T07:29:22.548Z,14.40
2018-03-11T07:31:49.462Z,14.70
2018-03-11T07:34:16.339Z,14.70
2018-03-11T07:36:42.519Z,15.00
2018-03-11T07:39:08.701Z,15.10
2018-03-11T07:41:34.914Z,15.00
2018-03-11T07:44:01.072Z,14.90
2018-03-11T07:46:27.251Z,14.50
2018-03-11T07:48:54.287Z,14.70
2018-03-11T07:51:20.607Z,14.60
2018-03-11T07:53:46.830Z,14.60
2018-03-11T07:56:25.813Z,15.00
2018-03-11T07:58:52.042Z,14.80
2018-03-11T08:01:18.181Z,15.20
2018-03-11T08:03:44.336Z,15.30
2018-03-11T08:06:10.517Z,15.10
2018-03-11T08:08:36.697Z,15.00
2018-03-11T08:11:02.961Z,15.20
2018-03-11T08:13:29.868Z,15.70
2018-03-11T08:15:56.025Z,15.60
2018-03-11T08:18:22.931Z,16.40
2018-03-11T08:20:49.822Z,16.40
2018-03-11T08:23:17.022Z,16.40
2018-03-11T08:25:43.244Z,16.50
2018-03-11T08:28:09.486Z,16.30
2018-03-11T08:33:44.056Z,16.50
2018-03-11T08:36:15.908Z,16.50
2018-03-11T08:38:42.164Z,16.10
2018-03-11T08:41:08.839Z,15.90
2018-03-11T08:43:35.744Z,15.90
2018-03-11T08:46:02.247Z,16.20
2018-03-11T08:48:33.306Z,16.00
2018-03-11T08:51:00.471Z,16.20
2018-03-11T08:53:27.526Z,16.50
2018-03-11T08:55:54.603Z,16.80
2018-03-11T08:58:21.643Z,17.10
2018-03-11T09:00:47.991Z,17.10
2018-03-11T09:03:14.387Z,17.40
2018-03-11T09:05:40.733Z,17.40
2018-03-11T09:08:07.120Z,17.50
2018-03-11T09:10:34.191Z,17.70
2018-03-11T09:13:01.699Z,17.90
2018-03-11T09:15:28.055Z,18.00
2018-03-11T09:17:59.638Z,18.00
2018-03-11T09:20:25.990Z,17.90
2018-03-11T09:22:52.296Z,17.70
2018-03-11T09:25:18.679Z,17.40
2018-03-11T09:27:45.055Z,17.20
2018-03-11T09:30:12.733Z,16.70
2018-03-11T09:32:39.894Z,16.70
2018-03-11T09:35:07.224Z,16.60
2018-03-11T09:37:33.743Z,16.50
2018-03-11T09:40:00.105Z,16.70
2018-03-11T09:42:26.414Z,16.90
2018-03-11T09:44:52.698Z,17.20
2018-03-11T09:47:18.973Z,17.50
2018-03-11T09:50:04.725Z,17.50
2018-03-11T09:52:31.173Z,17.60
2018-03-11T09:54:57.501Z,17.60
2018-03-11T09:57:24.234Z,17.60
2018-03-11T09:59:50.537Z,17.80
2018-03-11T10:02:17.024Z,18.00
2018-03-11T10:04:43.290Z,18.40
2018-03-11T10:09:48.034Z,18.50
2018-03-11T10:12:14.332Z,18.50
2018-03-11T10:14:40.675Z,18.10
2018-03-11T10:17:07.040Z,17.80
2018-03-11T10:19:33.378Z,17.70
2018-03-11T10:22:00.634Z,18.10
2018-03-11T10:24:27.006Z,18.10
2018-03-11T10:26:53.994Z,18.90
2018-03-11T10:29:20.217Z,18.90
2018-03-11T10:31:55.369Z,19.30
2018-03-11T10:34:21.578Z,19.50
2018-03-11T10:36:47.860Z,19.60
2018-03-11T10:39:14.136Z,19.60
2018-03-11T10:41:41.426Z,19.60
2018-03-11T10:44:07.681Z,19.60
2018-03-11T10:46:34.811Z,19.70
2018-03-11T10:49:01.293Z,19.70
2018-03-11T10:51:28.278Z,19.60
2018-03-11T10:53:54.541Z,19.60
2018-03-11T10:56:22.376Z,19.60
2018-03-11T10:58:48.666Z,19.60
2018-03-11T11:01:14.970Z,19.60
2018-03-11T11:03:47.399Z,19.50
2018-03-11T11:06:14.235Z,19.30
2018-03-11T11:08:52.558Z,19.30
2018-03-11T11:11:18.885Z,19.40
2018-03-11T11:13:45.241Z,19.50
2018-03-11T11:16:11.533Z,19.40
2018-03-11T11:18:40.691Z,19.90
2018-03-11T11:21:07.097Z,19.90
2018-03-11T11:23:33.393Z,20.00
2018-03-11T11:25:59.722Z,20.10
2018-03-11T11:28:26.108Z,20.00
2018-03-11T11:30:52.433Z,20.00
2018-03-11T11:33:18.762Z,19.90
2018-03-11T11:35:45.109Z,19.90
2018-03-11T11:38:11.371Z,20.00
2018-03-11T11:40:38.022Z,20.00
2018-03-11T11:43:05.360Z,19.70
2018-03-11T11:45:32.996Z,19.70
2018-03-11T11:48:00.292Z,19.90
2018-03-11T11:50:26.654Z,19.80
2018-03-11T11:52:57.627Z,20.00
2018-03-11T11:55:23.988Z,20.20
2018-03-11T11:57:50.298Z,20.40
2018-03-11T12:00:16.584Z,20.40
2018-03-11T12:02:42.960Z,20.40
2018-03-11T12:05:09.322Z,20.30
2018-03-11T12:07:36.469Z,20.40
2018-03-11T12:10:02.901Z,20.40
2018-03-11T12:12:29.438Z,20.20
2018-03-11T12:14:55.735Z,20.20
2018-03-11T12:17:22.007Z,20.30
2018-03-11T12:19:48.977Z,20.40
2018-03-11T12:22:15.334Z,20.40
2018-03-11T12:24:41.747Z,20.40
2018-03-11T12:27:08.197Z,20.50
2018-03-11T12:29:35.888Z,20.20
2018-03-11T12:32:02.239Z,20.20
2018-03-11T12:34:28.931Z,20.20
2018-03-11T12:36:55.205Z,20.20
2018-03-11T12:39:22.238Z,20.20
2018-03-11T12:41:48.525Z,20.20
2018-03-11T12:44:15.566Z,20.10
2018-03-11T12:46:41.913Z,20.10
2018-03-11T12:49:08.971Z,20.10
2018-03-11T12:51:35.660Z,20.10
2018-03-11T12:54:02.350Z,20.00
2018-03-11T12:56:29.380Z,20.10
2018-03-11T12:58:59.301Z,20.10
2018-03-11T13:01:26.851Z,20.20
2018-03-11T13:03:53.820Z,20.10
2018-03-11T13:06:20.142Z,20.10
2018-03-11T13:08:47.158Z,20.20
2018-03-11T13:11:13.381Z,20.20
2018-03-11T13:13:39.714Z,20.20
2018-03-11T13:16:06.050Z,20.30
2018-03-11T13:18:37.797Z,20.40
2018-03-11T13:21:08.585Z,20.40
2018-03-11T13:23:35.038Z,20.40
2018-03-11T13:29:19.394Z,20.30
2018-03-11T13:31:46.379Z,20.00
2018-03-11T13:34:24.916Z,20.00
2018-03-11T13:36:51.160Z,20.10
2018-03-11T13:39:29.703Z,20.00
2018-03-11T13:41:55.913Z,19.90
2018-03-11T13:44:22.904Z,20.00
2018-03-11T13:47:11.187Z,19.90
2018-03-11T13:49:38.181Z,20.10
2018-03-11T13:52:17.531Z,20.10
2018-03-11T13:54:44.566Z,20.10
2018-03-11T14:00:20.782Z,20.30
2018-03-11T14:02:46.949Z,20.30
2018-03-11T14:05:13.841Z,20.50
2018-03-11T14:07:40.013Z,20.50
2018-03-11T14:10:06.272Z,20.60
2018-03-11T14:12:32.423Z,20.50
2018-03-11T14:14:59.352Z,20.40
2018-03-11T14:17:25.512Z,20.40
2018-03-11T14:19:52.382Z,20.00
2018-03-11T14:22:36.830Z,19.80
2018-03-11T14:25:03.040Z,19.80
2018-03-11T14:27:29.602Z,19.70
2018-03-11T14:30:09.897Z,19.60
2018-03-11T14:32:36.875Z,19.30
2018-03-11T14:35:09.452Z,19.30
2018-03-11T14:37:38.389Z,19.10
2018-03-11T14:40:04.590Z,19.10
2018-03-11T14:42:31.505Z,18.90
2018-03-11T14:44:57.677Z,18.90
2018-03-11T14:47:24.032Z,18.90
2018-03-11T14:49:50.979Z,18.90
2018-03-11T14:52:17.148Z,18.90
2018-03-11T14:54:43.402Z,19.00
2018-03-11T14:57:09.625Z,19.00
2018-03-11T14:59:51.023Z,18.90
2018-03-11T15:02:21.655Z,18.90
2018-03-11T15:05:09.111Z,19.00
2018-03-11T15:07:36.500Z,19.00
2018-03-11T15:10:04.874Z,19.20
2018-03-11T15:12:33.199Z,19.20
2018-03-11T15:15:01.334Z,19.50
2018-03-11T15:17:28.806Z,19.70
2018-03-11T15:19:55.753Z,20.00
2018-03-11T15:22:21.918Z,20.00
2018-03-11T15:24:48.131Z,20.10
2018-03-11T15:27:15.029Z,19.90
2018-03-11T15:29:41.214Z,19.90
2018-03-11T15:32:07.496Z,19.70
2018-03-11T15:34:33.649Z,19.50
2018-03-11T15:37:06.214Z,19.40
2018-03-11T15:39:33.157Z,19.40
2018-03-11T15:42:04.337Z,19.10
2018-03-11T15:44:30.520Z,19.10
2018-03-11T15:46:57.435Z,18.60
2018-03-11T15:49:23.597Z,18.60
2018-03-11T15:51:54.173Z,18.50
2018-03-11T15:54:20.509Z,18.40
2018-03-11T15:56:46.791Z,18.20
2018-03-11T15:59:13.774Z,17.80
2018-03-11T16:01:39.995Z,17.80
2018-03-11T16:04:14.205Z,17.60
2018-03-11T16:06:40.606Z,17.50
2018-03-11T16:09:07.213Z,17.40
2018-03-11T16:11:37.888Z,17.10
2018-03-11T16:14:11.917Z,17.00
2018-03-11T16:16:39.850Z,16.80
2018-03-11T16:19:06.389Z,16.70
2018-03-11T16:21:32.614Z,16.60
2018-03-11T16:23:58.853Z,16.50
2018-03-11T16:26:25.892Z,16.40
2018-03-11T16:28:54.312Z,16.30
2018-03-11T16:31:20.631Z,16.30
2018-03-11T16:33:56.075Z,16.20
2018-03-11T16:36:22.505Z,16.10
2018-03-11T16:38:50.947Z,16.00
2018-03-11T16:41:17.168Z,15.90
2018-03-11T16:43:43.459Z,15.80
2018-03-11T16:46:10.450Z,15.40
2018-03-11T16:48:40.524Z,15.40
2018-03-11T16:51:07.566Z,15.10
2018-03-11T16:53:34.596Z,15.00
2018-03-11T16:56:05.031Z,15.00
2018-03-11T16:58:33.342Z,14.90
2018-03-11T17:00:59.568Z,14.80
2018-03-11T17:03:27.789Z,14.70
2018-03-11T17:05:53.989Z,14.60
2018-03-11T17:08:20.219Z,14.40
2018-03-11T17:10:48.270Z,14.40
2018-03-11T17:13:15.154Z,14.40
2018-03-11T17:15:41.785Z,14.30
2018-03-11T17:18:08.058Z,14.20
2018-03-11T17:20:35.049Z,13.90
2018-03-11T17:23:01.338Z,13.90
2018-03-11T17:25:32.157Z,13.80
2018-03-11T17:27:58.471Z,13.70
2018-03-11T17:30:24.794Z,13.80
2018-03-11T17:32:51.732Z,13.60
2018-03-11T17:35:17.884Z,13.60
2018-03-11T17:37:44.805Z,13.60
2018-03-11T17:40:10.948Z,13.50
2018-03-11T17:42:37.317Z,13.60
2018-03-11T17:45:04.678Z,13.60
2018-03-11T17:47:30.955Z,13.60
2018-03-11T17:49:57.122Z,13.60
2018-03-11T17:52:23.269Z,13.70
2018-03-11T17:54:49.457Z,13.70
2018-03-11T17:57:18.371Z,14.00
2018-03-11T17:59:46.503Z,13.90
2018-03-11T18:02:13.785Z,13.90
2018-03-11T18:04:40.000Z,13.90
2018-03-11T18:07:06.550Z,13.90
2018-03-11T18:09:34.869Z,13.80
2018-03-11T18:12:02.495Z,13.80
2018-03-11T18:14:28.757Z,13.80
2018-03-11T18:16:55.363Z,13.70
2018-03-11T18:19:22.670Z,13.70
2018-03-11T18:21:48.916Z,13.70
2018-03-11T18:24:15.901Z,13.60
2018-03-11T18:26:43.933Z,13.50
2018-03-11T18:29:10.275Z,13.50
2018-03-11T18:31:36.688Z,13.40
2018-03-11T18:34:03.776Z,13.40
2018-03-11T18:36:43.093Z,13.40
2018-03-11T18:39:09.454Z,13.40
2018-03-11T18:41:36.737Z,13.50
2018-03-11T18:44:03.022Z,13.50
2018-03-11T18:46:29.562Z,13.50
2018-03-11T18:48:56.992Z,13.50
2018-03-11T18:51:24.557Z,13.40
2018-03-11T18:53:50.723Z,13.30
2018-03-11T18:56:17.096Z,13.20
2018-03-11T18:58:44.335Z,13.10
2018-03-11T19:01:12.770Z,13.10
2018-03-11T19:03:39.325Z,13.00
2018-03-11T19:06:05.753Z,12.90
2018-03-11T19:08:36.029Z,12.90
2018-03-11T19:11:03.384Z,12.80
2018-03-11T19:13:30.720Z,12.70
2018-03-11T19:15:56.974Z,12.60
2018-03-11T19:18:23.402Z,12.70
2018-03-11T19:20:56.275Z,12.60
2018-03-11T19:23:22.976Z,12.50
2018-03-11T19:25:49.538Z,12.50
2018-03-11T19:28:17.981Z,12.50
2018-03-11T19:30:58.262Z,12.40
2018-03-11T19:33:28.209Z,12.40
2018-03-11T19:35:54.509Z,12.30
2018-03-11T19:38:26.943Z,12.30
2018-03-11T19:40:59.364Z,12.20
2018-03-11T19:43:25.893Z,12.20
2018-03-11T19:45:52.177Z,12.20
2018-03-11T19:48:18.583Z,12.20
2018-03-11T19:50:48.564Z,12.20
2018-03-11T19:53:14.847Z,12.10
2018-03-11T19:55:42.176Z,12.20
2018-03-11T19:58:10.872Z,12.20
2018-03-11T20:00:48.185Z,12.20
2018-03-11T20:03:21.217Z,12.20
2018-03-11T20:05:47.653Z,12.10
2018-03-11T20:08:39.379Z,12.10
2018-03-11T20:11:05.724Z,12.20
2018-03-11T20:13:32.126Z,12.30
2018-03-11T20:15:58.852Z,12.20
2018-03-11T20:18:25.975Z,12.10
2018-03-11T20:20:52.413Z,12.10
2018-03-11T20:23:18.736Z,12.10
2018-03-11T20:25:45.080Z,12.00
2018-03-11T20:28:12.205Z,12.20
2018-03-11T20:30:38.675Z,12.20
2018-03-11T20:33:05.219Z,12.10
2018-03-11T20:35:31.534Z,11.90
2018-03-11T20:37:59.880Z,11.70
2018-03-11T20:40:31.176Z,11.70
2018-03-11T20:43:08.798Z,11.60
2018-03-11T20:45:37.475Z,11.60
2018-03-11T20:48:03.936Z,11.60
2018-03-11T20:50:30.382Z,11.60
2018-03-11T20:52:59.028Z,11.60
2018-03-11T20:55:25.371Z,11.60
2018-03-11T20:57:52.620Z,11.50
2018-03-11T21:00:19.737Z,11.40
2018-03-11T21:02:47.625Z,11.40
2018-03-11T21:05:13.959Z,11.30
2018-03-11T21:07:40.278Z,11.40
2018-03-11T21:10:06.655Z,11.30
2018-03-11T21:12:32.986Z,11.20
2018-03-11T21:14:59.322Z,11.20
2018-03-11T21:17:44.069Z,11.10
2018-03-11T21:20:12.782Z,10.90
2018-03-11T21:22:39.530Z,10.90
2018-03-11T21:25:06.009Z,11.00
2018-03-11T21:27:33.205Z,11.00
2018-03-11T21:29:59.535Z,10.90
2018-03-11T21:32:31.021Z,11.00
2018-03-11T21:34:58.377Z,11.00
2018-03-11T21:37:25.648Z,10.90
2018-03-11T21:39:52.722Z,10.90
2018-03-11T21:42:27.150Z,10.80
2018-03-11T21:44:53.569Z,10.80
2018-03-11T21:47:34.914Z,10.80
2018-03-11T21:50:09.993Z,10.80
2018-03-11T21:52:36.483Z,10.70
2018-03-11T21:55:03.827Z,10.90
2018-03-11T21:57:30.365Z,10.90
2018-03-11T21:59:56.644Z,10.90
2018-03-11T22:02:23.096Z,10.90
2018-03-11T22:04:49.387Z,10.90
2018-03-11T22:07:15.931Z,10.90
2018-03-11T22:09:42.334Z,10.90
2018-03-11T22:12:09.357Z,10.80
2018-03-11T22:14:35.864Z,10.80
2018-03-11T22:17:07.208Z,10.90
2018-03-11T22:19:33.730Z,10.90
2018-03-11T22:22:04.184Z,11.10
2018-03-11T22:24:30.602Z,11.10
2018-03-11T22:26:57.041Z,11.10
2018-03-11T22:29:23.507Z,11.10
2018-03-11T22:31:50.551Z,11.10
2018-03-11T22:34:16.862Z,11.00
2018-03-11T22:36:43.235Z,11.20
2018-03-11T22:39:10.227Z,11.20
2018-03-11T22:41:37.481Z,11.30
2018-03-11T22:44:04.099Z,11.30
2018-03-11T22:46:30.660Z,11.30
2018-03-11T22:48:57.263Z,11.20
2018-03-11T22:51:23.639Z,11.10
2018-03-11T22:53:50.196Z,11.10
2018-03-11T22:56:16.492Z,11.20
2018-03-11T22:58:43.618Z,11.20
2018-03-11T23:01:10.484Z,11.20
2018-03-11T23:03:37.924Z,11.20
2018-03-11T23:06:04.435Z,11.20
2018-03-11T23:08:31.824Z,11.20
2018-03-11T23:10:58.623Z,11.20
2018-03-11T23:13:25.884Z,11.20
2018-03-11T23:15:52.428Z,11.10
2018-03-11T23:18:18.733Z,11.20
2018-03-11T23:20:45.066Z,11.20
2018-03-11T23:23:11.610Z,11.20
2018-03-11T23:25:38.088Z,11.20
2018-03-11T23:28:05.819Z,11.30
2018-03-11T23:30:32.208Z,11.20
2018-03-11T23:32:58.592Z,11.30
2018-03-11T23:35:24.941Z,11.40
2018-03-11T23:37:52.105Z,11.40
2018-03-11T23:40:19.378Z,11.50
2018-03-11T23:42:46.592Z,11.30
2018-03-11T23:45:13.153Z,11.30
2018-03-11T23:47:39.583Z,11.20
2018-03-11T23:50:05.972Z,11.00
2018-03-11T23:52:33.349Z,10.80
2018-03-11T23:54:59.967Z,10.70
2018-03-11T23:57:27.100Z,10.60
2018-03-11T23:59:53.433Z,10.60
